createdAt,value
2022-09-09T00:02:20.587Z,16.20
2022-09-09T00:05:13.382Z,16.70
2022-09-09T00:07:55.103Z,17.10
2022-09-09T00:10:43.199Z,16.20
2022-09-09T00:13:17.961Z,17.40
2022-09-09T00:16:00.642Z,16.20
2022-09-09T00:18:38.495Z,15.40
2022-09-09T00:21:16.466Z,17.40
2022-09-09T00:23:55.333Z,16.80
2022-09-09T00:29:04.648Z,17.00
2022-09-09T00:31:32.957Z,15.90
2022-09-09T00:34:05.594Z,15.80
2022-09-09T00:36:34.438Z,16.90
2022-09-09T00:39:04.052Z,15.80
2022-09-09T00:41:53.663Z,15.40
2022-09-09T00:44:31.324Z,15.70
2022-09-09T00:47:05.888Z,15.60
2022-09-09T00:49:42.593Z,15.00
2022-09-09T00:52:38.532Z,15.30
2022-09-09T00:57:34.878Z,15.60
2022-09-09T01:00:21.440Z,15.50
2022-09-09T01:03:03.705Z,16.10
2022-09-09T01:05:33.142Z,16.80
2022-09-09T01:08:03.559Z,15.50
2022-09-09T01:10:50.788Z,15.10
2022-09-09T01:13:27.176Z,16.00
2022-09-09T01:15:58.513Z,15.50
2022-09-09T01:18:35.617Z,16.40
2022-09-09T01:23:57.782Z,16.80
2022-09-09T01:26:36.154Z,15.40
2022-09-09T01:29:13.639Z,15.30
2022-09-09T01:32:00.279Z,16.40
2022-09-09T01:34:31.705Z,15.30
2022-09-09T01:37:11.293Z,15.40
2022-09-09T01:39:42.023Z,16.00
2022-09-09T01:42:15.013Z,15.80
2022-09-09T01:44:42.520Z,16.40
2022-09-09T01:52:23.783Z,15.20
2022-09-09T01:54:50.884Z,16.50
2022-09-09T01:58:12.461Z,14.30
2022-09-09T02:00:52.016Z,15.20
2022-09-09T02:03:29.614Z,15.10
2022-09-09T02:06:35.953Z,14.00
2022-09-09T02:11:45.148Z,13.90
2022-09-09T02:14:29.484Z,15.20
2022-09-09T02:17:01.252Z,15.00
2022-09-09T02:19:46.953Z,15.10
2022-09-09T02:22:25.211Z,14.10
2022-09-09T02:24:57.088Z,14.50
2022-09-09T02:29:54.825Z,15.00
2022-09-09T02:32:36.517Z,14.90
2022-09-09T02:35:18.402Z,14.90
2022-09-09T02:37:47.219Z,14.70
2022-09-09T02:40:18.935Z,14.90
2022-09-09T02:42:50.650Z,13.80
2022-09-09T02:45:26.339Z,15.10
2022-09-09T02:48:13.449Z,14.80
2022-09-09T02:50:58.927Z,14.90
2022-09-09T02:54:01.072Z,14.80
2022-09-09T02:56:32.328Z,14.30
2022-09-09T03:11:28.853Z,16.10
2022-09-09T03:16:25.710Z,14.90
2022-09-09T03:28:46.432Z,15.30
2022-09-09T03:36:15.860Z,14.40
2022-09-09T03:56:02.399Z,13.30
2022-09-09T03:58:30.951Z,15.10
2022-09-09T04:03:31.170Z,14.50
2022-09-09T04:06:00.487Z,14.40
2022-09-09T04:16:00.380Z,14.50
2022-09-09T04:18:31.513Z,13.30
2022-09-09T04:23:32.261Z,13.40
2022-09-09T04:26:00.905Z,14.70
2022-09-09T04:28:33.782Z,17.30
2022-09-09T04:31:10.026Z,14.70
2022-09-09T04:38:37.092Z,15.70
2022-09-09T04:41:05.213Z,15.60
2022-09-09T04:51:03.749Z,15.90
2022-09-09T04:53:32.122Z,15.60
2022-09-09T04:56:13.332Z,13.90
2022-09-09T05:01:18.366Z,14.40
2022-09-09T05:03:47.308Z,13.30
2022-09-09T05:06:19.485Z,14.50
2022-09-09T05:11:26.813Z,14.50
2022-09-09T05:13:57.990Z,13.80
2022-09-09T05:18:52.315Z,13.50
2022-09-09T05:21:21.674Z,14.50
2022-09-09T05:26:18.337Z,14.50
2022-09-09T05:31:18.105Z,14.50
2022-09-09T05:33:50.211Z,12.80
2022-09-09T05:36:22.601Z,13.70
2022-09-09T05:38:54.772Z,13.50
2022-09-09T05:46:23.433Z,14.80
2022-09-09T05:48:52.911Z,14.90
2022-09-09T05:51:24.211Z,15.80
2022-09-09T05:54:01.277Z,15.00
2022-09-09T05:56:31.534Z,15.90
2022-09-09T06:01:34.218Z,15.20
2022-09-09T06:06:40.529Z,15.40
2022-09-09T06:09:14.561Z,17.00
2022-09-09T06:16:40.481Z,14.70
2022-09-09T06:19:15.331Z,16.10
2022-09-09T06:26:42.055Z,15.20
2022-09-09T06:31:38.998Z,16.00
2022-09-09T06:36:43.603Z,15.20
2022-09-09T06:39:14.742Z,15.20
2022-09-09T07:32:53.005Z,16.90
2022-09-09T07:35:20.967Z,17.10
2022-09-09T07:42:48.961Z,19.90
2022-09-09T07:45:17.614Z,17.50
2022-09-09T07:47:44.423Z,18.70
2022-09-09T08:00:05.686Z,17.90
2022-09-09T08:02:39.492Z,18.80
2022-09-09T08:07:34.413Z,17.40
2022-09-09T08:12:31.625Z,16.90
2022-09-09T08:15:02.433Z,18.00
2022-09-09T08:17:33.339Z,18.40
2022-09-09T08:20:07.616Z,17.20
2022-09-09T08:30:04.794Z,16.60
2022-09-09T08:32:31.805Z,18.40
2022-09-09T08:42:34.750Z,18.20
2022-09-09T08:45:04.433Z,19.50
2022-09-09T09:10:48.813Z,17.60
2022-09-09T09:13:46.206Z,18.10
2022-09-09T09:27:36.457Z,18.50
2022-09-09T09:30:35.762Z,18.40
2022-09-09T09:33:28.197Z,18.20
2022-09-09T09:41:15.891Z,19.50
2022-09-09T09:43:46.120Z,17.90
2022-09-09T09:46:26.748Z,18.20
2022-09-09T09:49:10.605Z,18.10
2022-09-09T09:54:30.602Z,16.90
2022-09-09T09:57:16.472Z,18.10
2022-09-09T10:02:26.470Z,19.20
2022-09-09T10:05:07.274Z,17.90
2022-09-09T10:07:38.281Z,19.10
2022-09-09T10:13:00.254Z,17.80
2022-09-09T10:15:53.198Z,18.70
2022-09-09T10:18:48.714Z,18.00
2022-09-09T10:21:32.948Z,18.20
2022-09-09T10:24:14.561Z,17.90
2022-09-09T10:27:07.683Z,17.90
2022-09-09T10:30:00.289Z,17.70
2022-09-09T10:32:58.811Z,17.90
2022-09-09T10:38:14.970Z,18.00
2022-09-09T10:43:37.455Z,18.40
2022-09-09T10:46:48.585Z,18.70
2022-09-09T10:49:53.676Z,18.90
2022-09-09T10:52:56.240Z,19.30
2022-09-09T10:55:30.091Z,20.00
2022-09-09T10:58:00.881Z,21.10
2022-09-09T11:00:39.898Z,20.40
2022-09-09T11:05:45.857Z,20.10
2022-09-09T11:08:18.242Z,20.10
2022-09-09T11:11:13.700Z,21.20
2022-09-09T11:13:55.346Z,19.90
2022-09-09T11:16:42.707Z,19.70
2022-09-09T11:19:39.936Z,18.20
2022-09-09T11:22:30.318Z,19.20
2022-09-09T11:25:08.437Z,20.20
2022-09-09T11:27:48.667Z,20.40
2022-09-09T11:30:53.844Z,19.20
2022-09-09T11:33:51.227Z,20.30
2022-09-09T11:36:36.159Z,17.90
2022-09-09T11:39:28.200Z,19.00
2022-09-09T11:44:31.035Z,18.80
2022-09-09T11:49:32.427Z,18.90
2022-09-09T11:54:45.386Z,21.20
2022-09-09T11:57:39.062Z,17.90
2022-09-09T12:00:07.405Z,19.60
2022-09-09T12:02:50.933Z,20.00
2022-09-09T12:05:20.895Z,19.30
2022-09-09T12:10:31.209Z,18.70
2022-09-09T12:13:16.113Z,18.60
2022-09-09T12:15:57.419Z,18.70
2022-09-09T12:18:33.144Z,20.20
2022-09-09T12:21:15.747Z,19.00
2022-09-09T12:24:07.210Z,19.30
2022-09-09T12:27:00.966Z,19.40
2022-09-09T12:29:51.827Z,19.80
2022-09-09T12:32:23.975Z,17.90
2022-09-09T12:35:02.132Z,19.20
2022-09-09T12:37:36.356Z,19.10
2022-09-09T12:40:36.280Z,19.10
2022-09-09T12:43:23.850Z,19.50
2022-09-09T12:45:58.669Z,18.00
2022-09-09T12:48:39.730Z,19.50
2022-09-09T12:51:17.673Z,21.00
2022-09-09T12:53:46.982Z,19.70
2022-09-09T12:56:34.132Z,19.50
2022-09-09T13:01:32.207Z,21.50
2022-09-09T13:06:29.578Z,20.60
2022-09-09T13:08:59.858Z,20.20
2022-09-09T13:11:43.093Z,19.20
2022-09-09T13:14:22.647Z,19.90
2022-09-09T13:17:01.671Z,19.20
2022-09-09T13:19:35.429Z,19.70
2022-09-09T13:22:19.831Z,19.60
2022-09-09T13:27:33.328Z,18.90
2022-09-09T13:30:00.327Z,18.40
2022-09-09T13:32:28.516Z,19.70
2022-09-09T13:35:00.758Z,19.80
2022-09-09T13:37:46.329Z,19.80
2022-09-09T13:40:22.679Z,18.40
2022-09-09T13:42:57.085Z,19.40
2022-09-09T13:45:27.812Z,19.80
2022-09-09T13:47:56.409Z,19.80
2022-09-09T13:50:25.283Z,19.90
2022-09-09T13:52:54.847Z,19.90
2022-09-09T13:55:23.830Z,22.70
2022-09-09T13:57:54.245Z,21.20
2022-09-09T14:02:49.926Z,19.90
2022-09-09T14:07:45.502Z,19.70
2022-09-09T14:10:13.220Z,19.80
2022-09-09T14:12:49.522Z,21.00
2022-09-09T14:27:34.644Z,18.50
2022-09-09T14:34:57.030Z,19.30
2022-09-09T14:37:23.858Z,20.80
2022-09-09T14:42:19.118Z,21.40
2022-09-09T14:44:45.932Z,23.40
2022-09-09T14:52:12.257Z,23.40
2022-09-09T14:59:33.347Z,23.20
2022-09-09T15:02:04.931Z,25.80
2022-09-09T15:06:59.792Z,23.50
2022-09-09T15:09:26.865Z,22.30
2022-09-09T15:14:22.495Z,22.50
2022-09-09T15:16:52.396Z,22.20
2022-09-09T15:29:10.272Z,21.50
2022-09-09T15:34:07.126Z,20.80
2022-09-09T15:36:36.729Z,20.90
2022-09-09T15:39:05.792Z,21.10
2022-09-09T15:44:04.349Z,21.70
2022-09-09T15:46:33.307Z,23.00
2022-09-09T15:49:06.245Z,22.40
2022-09-09T15:51:49.017Z,23.00
2022-09-09T15:54:18.910Z,23.20
2022-09-09T15:56:47.427Z,21.90
2022-09-09T15:59:15.912Z,24.40
2022-09-09T16:01:43.173Z,25.90
2022-09-09T16:04:10.641Z,27.60
2022-09-09T16:06:37.603Z,26.60
2022-09-09T16:09:06.822Z,28.00
2022-09-09T16:11:39.123Z,28.40
2022-09-09T16:14:07.522Z,28.10
2022-09-09T16:16:36.143Z,27.70
2022-09-09T16:19:12.474Z,27.60
2022-09-09T16:21:47.456Z,28.20
2022-09-09T16:24:18.728Z,28.00
2022-09-09T16:26:50.632Z,26.60
2022-09-09T16:29:19.399Z,27.30
2022-09-09T16:31:47.789Z,25.10
2022-09-09T16:34:15.704Z,23.70
2022-09-09T16:36:44.203Z,23.10
2022-09-09T16:39:13.932Z,24.40
2022-09-09T16:41:44.413Z,22.90
2022-09-09T16:44:14.284Z,25.00
2022-09-09T16:46:42.918Z,22.00
2022-09-09T16:49:15.700Z,23.10
2022-09-09T16:51:49.271Z,23.00
2022-09-09T16:54:18.075Z,22.00
2022-09-09T16:56:47.511Z,22.90
2022-09-09T16:59:20.775Z,22.60
2022-09-09T17:01:49.482Z,21.20
2022-09-09T17:04:21.656Z,21.60
2022-09-09T17:06:50.701Z,20.20
2022-09-09T17:09:18.568Z,21.10
2022-09-09T17:11:46.516Z,20.90
2022-09-09T17:14:16.636Z,20.80
2022-09-09T17:16:46.057Z,21.20
2022-09-09T17:19:13.828Z,20.30
2022-09-09T17:22:05.940Z,21.70
2022-09-09T17:26:58.182Z,18.90
2022-09-09T17:29:25.910Z,21.10
2022-09-09T17:36:47.603Z,20.50
2022-09-09T17:41:41.981Z,18.60
2022-09-09T17:44:10.411Z,19.10
2022-09-09T17:46:43.575Z,19.30
2022-09-09T17:49:16.568Z,19.20
2022-09-09T17:51:45.205Z,19.50
2022-09-09T17:54:20.184Z,20.40
2022-09-09T17:56:48.396Z,18.60
2022-09-09T17:59:16.654Z,18.90
2022-09-09T18:01:46.353Z,18.90
2022-09-09T18:04:15.192Z,17.80
2022-09-09T18:06:45.040Z,18.80
2022-09-09T18:09:14.804Z,19.20
2022-09-09T18:11:45.360Z,20.10
2022-09-09T18:14:21.350Z,19.90
2022-09-09T18:16:48.937Z,19.20
2022-09-09T18:19:19.130Z,18.70
2022-09-09T18:21:46.971Z,18.50
2022-09-09T18:24:15.354Z,18.20
2022-09-09T18:26:44.833Z,17.40
2022-09-09T18:29:15.783Z,17.30
2022-09-09T18:34:12.036Z,18.40
2022-09-09T18:36:47.325Z,17.40
2022-09-09T18:39:18.741Z,17.20
2022-09-09T18:41:52.178Z,18.30
2022-09-09T18:44:24.670Z,18.30
2022-09-09T18:46:54.274Z,19.30
2022-09-09T18:49:22.991Z,19.10
2022-09-09T18:51:50.148Z,18.10
2022-09-09T18:54:20.465Z,19.30
2022-09-09T18:59:20.983Z,18.20
2022-09-09T19:01:50.217Z,19.40
2022-09-09T19:04:18.850Z,18.10
2022-09-09T19:06:47.346Z,18.10
2022-09-09T19:09:16.932Z,18.00
2022-09-09T19:14:14.433Z,17.90
2022-09-09T19:16:41.863Z,19.00
2022-09-09T19:19:22.575Z,18.90
2022-09-09T19:21:51.635Z,19.20
2022-09-09T19:24:21.200Z,17.90
2022-09-09T19:26:50.381Z,17.80
2022-09-09T19:29:19.984Z,17.80
2022-09-09T19:32:09.740Z,16.60
2022-09-09T19:34:40.326Z,17.80
2022-09-09T19:39:36.386Z,16.60
2022-09-09T19:47:01.505Z,16.70
2022-09-09T19:56:51.837Z,17.30
2022-09-09T20:04:14.848Z,18.80
2022-09-09T20:06:46.395Z,17.40
2022-09-09T20:09:15.962Z,17.40
2022-09-09T20:11:44.758Z,17.30
2022-09-09T20:14:12.663Z,17.20
2022-09-09T20:19:11.034Z,17.10
2022-09-09T20:21:46.718Z,17.40
2022-09-09T20:24:18.368Z,16.10
2022-09-09T20:26:47.398Z,17.00
2022-09-09T20:29:16.711Z,17.00
2022-09-09T20:31:44.256Z,15.80
2022-09-09T20:34:16.697Z,15.70
2022-09-09T20:36:43.781Z,16.50
2022-09-09T20:39:14.961Z,16.90
2022-09-09T20:41:44.155Z,15.70
2022-09-09T20:44:14.676Z,16.90
2022-09-09T20:46:44.277Z,16.80
2022-09-09T20:49:11.847Z,18.10
2022-09-09T20:54:10.318Z,16.80
2022-09-09T20:56:39.235Z,16.80
2022-09-09T20:59:14.312Z,16.20
2022-09-09T21:04:10.442Z,16.10
2022-09-09T21:09:06.489Z,17.10
2022-09-09T21:11:34.913Z,17.90
2022-09-09T21:14:02.403Z,17.40
2022-09-09T21:16:31.469Z,16.80
2022-09-09T21:18:59.296Z,18.30
2022-09-09T21:21:26.968Z,16.90
2022-09-09T21:23:58.884Z,16.80
2022-09-09T21:38:52.353Z,18.20
2022-09-09T21:46:16.850Z,16.80
2022-09-09T21:48:45.509Z,18.20
2022-09-09T21:51:14.818Z,16.70
2022-09-09T21:53:43.376Z,16.70
2022-09-09T21:56:12.475Z,16.70
2022-09-09T21:58:41.053Z,17.40
2022-09-09T22:01:14.656Z,16.50
2022-09-09T22:06:12.349Z,16.70
2022-09-09T22:11:12.242Z,15.60
2022-09-09T22:13:39.320Z,15.60
2022-09-09T22:16:09.269Z,16.60
2022-09-09T22:21:10.905Z,16.60
2022-09-09T22:23:37.718Z,17.90
2022-09-09T22:26:07.679Z,16.50
2022-09-09T22:28:36.033Z,16.50
2022-09-09T22:38:26.809Z,15.40
2022-09-09T22:43:22.501Z,16.40
2022-09-09T22:48:18.912Z,15.90
2022-09-09T22:50:46.863Z,16.70
2022-09-09T22:53:15.944Z,16.60
2022-09-09T23:00:40.960Z,16.50
2022-09-09T23:17:58.490Z,16.50
2022-09-09T23:27:49.984Z,15.60
2022-09-09T23:35:13.784Z,15.20
2022-09-09T23:40:08.436Z,15.40
2022-09-09T23:42:35.149Z,15.60
2022-09-09T23:49:58.337Z,16.50
2022-09-09T23:52:26.621Z,15.50
2022-09-09T23:57:21.739Z,17.30
